createdAt,value
2018-05-26T00:00:59.215Z,980.57
2018-05-26T00:01:59.460Z,980.55
2018-05-26T00:02:59.703Z,980.53
2018-05-26T00:03:59.945Z,980.59
2018-05-26T00:05:00.192Z,980.59
2018-05-26T00:06:00.432Z,980.60
2018-05-26T00:07:00.674Z,980.62
2018-05-26T00:08:00.917Z,980.61
2018-05-26T00:09:01.159Z,980.63
2018-05-26T00:10:01.402Z,980.65
2018-05-26T00:11:01.643Z,980.65
2018-05-26T00:12:01.886Z,980.65
2018-05-26T00:13:02.130Z,980.64
2018-05-26T00:14:02.377Z,980.64
2018-05-26T00:15:02.618Z,980.65
2018-05-26T00:16:02.860Z,980.63
2018-05-26T00:17:03.103Z,980.65
2018-05-26T00:18:03.345Z,980.67
2018-05-26T00:19:03.589Z,980.66
2018-05-26T00:20:03.836Z,980.68
2018-05-26T00:21:04.076Z,980.66
2018-05-26T00:22:04.321Z,980.64
2018-05-26T00:23:04.567Z,980.63
2018-05-26T00:24:04.805Z,980.60
2018-05-26T00:25:05.049Z,980.59
2018-05-26T00:26:05.290Z,980.56
2018-05-26T00:27:05.533Z,980.54
2018-05-26T00:28:05.776Z,980.55
2018-05-26T00:29:06.020Z,980.53
2018-05-26T00:30:06.262Z,980.57
2018-05-26T00:31:06.505Z,980.54
2018-05-26T00:32:06.746Z,980.55
2018-05-26T00:33:06.989Z,980.54
2018-05-26T00:34:07.234Z,980.54
2018-05-26T00:35:07.477Z,980.54
2018-05-26T00:36:07.722Z,980.54
2018-05-26T00:37:07.962Z,980.53
2018-05-26T00:38:08.204Z,980.55
2018-05-26T00:39:08.446Z,980.56
2018-05-26T00:40:08.689Z,980.56
2018-05-26T00:41:08.931Z,980.54
2018-05-26T00:42:09.172Z,980.56
2018-05-26T00:43:09.417Z,980.54
2018-05-26T00:44:09.662Z,980.52
2018-05-26T00:45:09.904Z,980.57
2018-05-26T00:46:10.148Z,980.54
2018-05-26T00:47:10.390Z,980.59
2018-05-26T00:48:10.633Z,980.61
2018-05-26T00:49:10.876Z,980.59
2018-05-26T00:50:11.122Z,980.57
2018-05-26T00:51:11.363Z,980.59
2018-05-26T00:52:11.607Z,980.58
2018-05-26T00:53:11.850Z,980.63
2018-05-26T00:54:12.094Z,980.60
2018-05-26T00:55:12.338Z,980.61
2018-05-26T00:56:12.579Z,980.56
2018-05-26T00:57:12.821Z,980.62
2018-05-26T00:58:13.064Z,980.62
2018-05-26T00:59:13.307Z,980.63
2018-05-26T01:00:13.549Z,980.65
2018-05-26T01:01:13.791Z,980.67
2018-05-26T01:02:14.035Z,980.65
2018-05-26T01:03:14.281Z,980.60
2018-05-26T01:04:14.521Z,980.65
2018-05-26T01:05:14.763Z,980.66
2018-05-26T01:06:15.003Z,980.64
2018-05-26T01:07:15.252Z,980.64
2018-05-26T01:08:15.493Z,980.63
2018-05-26T01:09:15.738Z,980.64
2018-05-26T01:10:15.984Z,980.64
2018-05-26T01:11:16.225Z,980.61
2018-05-26T01:12:16.468Z,980.65
2018-05-26T01:13:16.712Z,980.63
2018-05-26T01:14:16.955Z,980.64
2018-05-26T01:15:17.198Z,980.64
2018-05-26T01:16:17.440Z,980.67
2018-05-26T01:17:17.687Z,980.68
2018-05-26T01:18:17.929Z,980.66
2018-05-26T01:19:18.172Z,980.62
2018-05-26T01:20:18.417Z,980.69
2018-05-26T01:21:18.657Z,980.64
2018-05-26T01:22:18.899Z,980.68
2018-05-26T01:23:19.143Z,980.68
2018-05-26T01:24:19.386Z,980.67
2018-05-26T01:25:19.629Z,980.69
2018-05-26T01:26:19.870Z,980.67
2018-05-26T01:27:20.112Z,980.65
2018-05-26T01:28:20.356Z,980.69
2018-05-26T01:29:20.598Z,980.67
2018-05-26T01:30:20.840Z,980.70
2018-05-26T01:31:21.083Z,980.70
2018-05-26T01:32:21.326Z,980.73
2018-05-26T01:33:21.572Z,980.71
2018-05-26T01:34:21.813Z,980.69
2018-05-26T01:35:22.052Z,980.73
2018-05-26T01:36:22.294Z,980.70
2018-05-26T01:37:22.534Z,980.73
2018-05-26T01:38:22.781Z,980.76
2018-05-26T01:39:23.020Z,980.78
2018-05-26T01:40:23.263Z,980.70
2018-05-26T01:41:23.506Z,980.67
2018-05-26T01:42:23.750Z,980.76
2018-05-26T01:43:23.990Z,980.73
2018-05-26T01:44:24.231Z,980.74
2018-05-26T01:45:24.474Z,980.79
2018-05-26T01:46:24.714Z,980.77
2018-05-26T01:47:24.960Z,980.80
2018-05-26T01:48:25.200Z,980.75
2018-05-26T01:49:25.442Z,980.73
2018-05-26T01:50:25.688Z,980.76
2018-05-26T01:51:25.931Z,980.76
2018-05-26T01:52:26.174Z,980.74
2018-05-26T01:53:26.415Z,980.73
2018-05-26T01:54:26.661Z,980.74
2018-05-26T01:55:26.902Z,980.72
2018-05-26T01:56:27.146Z,980.70
2018-05-26T01:57:27.389Z,980.74
2018-05-26T01:58:27.631Z,980.66
2018-05-26T01:59:27.873Z,980.67
2018-05-26T02:00:28.116Z,980.67
2018-05-26T02:01:28.359Z,980.64
2018-05-26T02:02:28.603Z,980.61
2018-05-26T02:03:28.849Z,980.60
2018-05-26T02:04:29.089Z,980.56
2018-05-26T02:05:29.331Z,980.56
2018-05-26T02:06:29.574Z,980.57
2018-05-26T02:07:29.817Z,980.56
2018-05-26T02:08:30.059Z,980.57
2018-05-26T02:09:30.301Z,980.57
2018-05-26T02:10:30.542Z,980.57
2018-05-26T02:11:30.786Z,980.57
2018-05-26T02:12:31.028Z,980.57
2018-05-26T02:13:31.268Z,980.58
2018-05-26T02:14:31.511Z,980.59
2018-05-26T02:15:31.755Z,980.64
2018-05-26T02:16:31.994Z,980.60
2018-05-26T02:17:32.237Z,980.60
2018-05-26T02:18:32.479Z,980.60
2018-05-26T02:19:32.721Z,980.59
2018-05-26T02:20:32.967Z,980.60
2018-05-26T02:21:33.207Z,980.56
2018-05-26T02:22:33.449Z,980.56
2018-05-26T02:23:33.690Z,980.60
2018-05-26T02:24:33.933Z,980.65
2018-05-26T02:25:34.179Z,980.62
2018-05-26T02:26:34.423Z,980.64
2018-05-26T02:27:34.661Z,980.62
2018-05-26T02:28:34.905Z,980.61
2018-05-26T02:29:35.148Z,980.59
2018-05-26T02:30:35.389Z,980.59
2018-05-26T02:31:35.633Z,980.58
2018-05-26T02:32:35.876Z,980.55
2018-05-26T02:33:36.119Z,980.58
2018-05-26T02:34:36.363Z,980.55
2018-05-26T02:35:36.602Z,980.57
2018-05-26T02:36:36.844Z,980.56
2018-05-26T02:37:37.086Z,980.56
2018-05-26T02:38:37.327Z,980.61
2018-05-26T02:39:37.575Z,980.61
2018-05-26T02:40:37.812Z,980.58
2018-05-26T02:41:38.057Z,980.59
2018-05-26T02:42:38.295Z,980.58
2018-05-26T02:43:38.539Z,980.58
2018-05-26T02:44:38.782Z,980.56
2018-05-26T02:45:39.024Z,980.61
2018-05-26T02:46:39.267Z,980.59
2018-05-26T02:47:39.509Z,980.58
2018-05-26T02:48:39.761Z,980.62
2018-05-26T02:49:39.996Z,980.62
2018-05-26T02:50:40.239Z,980.64
2018-05-26T02:51:40.482Z,980.67
2018-05-26T02:52:40.724Z,980.69
2018-05-26T02:53:40.965Z,980.66
2018-05-26T02:54:41.213Z,980.72
2018-05-26T02:55:41.450Z,980.69
2018-05-26T02:56:41.694Z,980.69
2018-05-26T02:57:41.937Z,980.70
2018-05-26T02:58:42.179Z,980.71
2018-05-26T02:59:42.431Z,980.68
2018-05-26T03:00:42.667Z,980.67
2018-05-26T03:01:42.907Z,980.67
2018-05-26T03:02:43.149Z,980.69
2018-05-26T03:03:43.395Z,980.73
2018-05-26T03:04:43.635Z,980.71
2018-05-26T03:05:43.876Z,980.75
2018-05-26T03:06:44.120Z,980.73
2018-05-26T03:07:44.365Z,980.76
2018-05-26T03:08:44.602Z,980.76
2018-05-26T03:09:44.845Z,980.79
2018-05-26T03:10:45.087Z,980.81
2018-05-26T03:11:45.330Z,980.79
2018-05-26T03:12:45.573Z,980.78
2018-05-26T03:13:45.817Z,980.75
2018-05-26T03:14:46.059Z,980.78
2018-05-26T03:15:46.300Z,980.79
2018-05-26T03:16:46.542Z,980.77
2018-05-26T03:17:46.785Z,980.79
2018-05-26T03:18:47.029Z,980.78
2018-05-26T03:19:47.272Z,980.75
2018-05-26T03:20:47.514Z,980.78
2018-05-26T03:21:47.757Z,980.77
2018-05-26T03:22:47.999Z,980.75
2018-05-26T03:23:48.240Z,980.78
2018-05-26T03:24:48.484Z,980.82
2018-05-26T03:25:48.726Z,980.85
2018-05-26T03:26:48.967Z,980.86
2018-05-26T03:27:49.209Z,980.87
2018-05-26T03:28:49.457Z,980.90
2018-05-26T03:29:49.693Z,980.87
2018-05-26T03:30:49.935Z,980.87
2018-05-26T03:31:50.177Z,980.90
2018-05-26T03:32:50.418Z,980.95
2018-05-26T03:33:50.675Z,980.91
2018-05-26T03:34:50.904Z,980.95
2018-05-26T03:35:51.145Z,980.94
2018-05-26T03:36:51.388Z,980.93
2018-05-26T03:37:51.630Z,980.96
2018-05-26T03:38:51.872Z,980.93
2018-05-26T03:39:52.114Z,980.93
2018-05-26T03:40:52.356Z,980.90
2018-05-26T03:41:52.600Z,980.94
2018-05-26T03:42:52.840Z,980.98
2018-05-26T03:43:53.084Z,980.97
2018-05-26T03:44:53.329Z,980.94
2018-05-26T03:45:53.571Z,980.96
2018-05-26T03:46:53.814Z,980.95
2018-05-26T03:47:54.056Z,980.95
2018-05-26T03:48:54.300Z,980.96
2018-05-26T03:49:54.542Z,980.97
2018-05-26T03:50:54.784Z,980.97
2018-05-26T03:51:55.029Z,980.98
2018-05-26T03:52:55.271Z,981.00
2018-05-26T03:53:55.520Z,980.98
2018-05-26T03:54:55.754Z,981.03
2018-05-26T03:55:56.003Z,981.01
2018-05-26T03:56:56.238Z,981.02
2018-05-26T03:57:56.481Z,981.02
2018-05-26T03:58:56.723Z,981.06
2018-05-26T03:59:56.966Z,981.07
2018-05-26T04:00:57.207Z,981.09
2018-05-26T04:01:57.451Z,981.09
2018-05-26T04:02:57.691Z,981.09
2018-05-26T04:03:57.934Z,981.07
2018-05-26T04:04:58.179Z,981.09
2018-05-26T04:05:58.473Z,981.07
2018-05-26T04:06:58.662Z,981.04
2018-05-26T04:07:58.904Z,981.04
2018-05-26T04:08:59.146Z,981.03
2018-05-26T04:09:59.388Z,980.99
2018-05-26T04:10:59.635Z,981.02
2018-05-26T04:11:59.873Z,981.00
2018-05-26T04:13:00.115Z,981.01
2018-05-26T04:14:00.356Z,980.99
2018-05-26T04:15:00.597Z,980.95
2018-05-26T04:16:00.839Z,980.95
2018-05-26T04:17:01.082Z,980.95
2018-05-26T04:18:01.326Z,980.93
2018-05-26T04:19:01.566Z,980.93
2018-05-26T04:20:01.808Z,980.93
2018-05-26T04:21:02.051Z,980.96
2018-05-26T04:22:02.294Z,980.95
2018-05-26T04:23:02.535Z,980.93
2018-05-26T04:24:02.778Z,980.93
2018-05-26T04:25:03.021Z,980.95
2018-05-26T04:26:03.263Z,980.95
2018-05-26T04:27:03.507Z,980.96
2018-05-26T04:28:03.751Z,980.98
2018-05-26T04:29:03.999Z,981.00
2018-05-26T04:30:04.237Z,980.99
2018-05-26T04:31:04.480Z,980.97
2018-05-26T04:32:04.723Z,980.98
2018-05-26T04:33:04.965Z,981.00
2018-05-26T04:34:05.208Z,981.00
2018-05-26T04:35:05.449Z,981.01
2018-05-26T04:36:05.696Z,981.04
2018-05-26T04:37:05.935Z,981.02
2018-05-26T04:38:06.181Z,981.02
2018-05-26T04:39:06.420Z,981.04
2018-05-26T04:40:06.662Z,981.03
2018-05-26T04:41:06.906Z,981.03
2018-05-26T04:42:07.150Z,981.07
2018-05-26T04:43:07.393Z,981.10
2018-05-26T04:44:07.635Z,981.09
2018-05-26T04:45:07.878Z,981.10
2018-05-26T04:46:08.123Z,981.19
2018-05-26T04:47:08.371Z,981.17
2018-05-26T04:48:08.613Z,981.17
2018-05-26T04:49:08.852Z,981.19
2018-05-26T04:50:09.096Z,981.22
2018-05-26T04:51:09.341Z,981.24
2018-05-26T04:52:09.584Z,981.28
2018-05-26T04:53:09.824Z,981.30
2018-05-26T04:54:10.067Z,981.32
2018-05-26T04:55:10.310Z,981.33
2018-05-26T04:56:10.554Z,981.36
2018-05-26T04:57:10.795Z,981.38
2018-05-26T04:58:11.038Z,981.40
2018-05-26T04:59:11.280Z,981.41
2018-05-26T05:00:11.521Z,981.39
2018-05-26T05:01:11.764Z,981.46
2018-05-26T05:02:12.010Z,981.45
2018-05-26T05:03:12.251Z,981.48
2018-05-26T05:04:12.495Z,981.49
2018-05-26T05:05:12.738Z,981.47
2018-05-26T05:06:12.985Z,981.50
2018-05-26T05:07:13.228Z,981.52
2018-05-26T05:08:13.466Z,981.53
2018-05-26T05:09:13.708Z,981.52
2018-05-26T05:10:13.953Z,981.51
2018-05-26T05:11:14.195Z,981.48
2018-05-26T05:12:14.436Z,981.44
2018-05-26T05:13:14.682Z,981.44
2018-05-26T05:14:14.923Z,981.45
2018-05-26T05:15:15.165Z,981.43
2018-05-26T05:16:15.412Z,981.48
2018-05-26T05:17:15.655Z,981.45
2018-05-26T05:18:15.897Z,981.43
2018-05-26T05:19:16.140Z,981.45
2018-05-26T05:20:16.383Z,981.48
2018-05-26T05:21:16.628Z,981.47
2018-05-26T05:22:16.873Z,981.46
2018-05-26T05:23:17.116Z,981.43
2018-05-26T05:24:17.360Z,981.45
2018-05-26T05:25:17.604Z,981.47
2018-05-26T05:26:17.849Z,981.42
2018-05-26T05:27:18.094Z,981.39
2018-05-26T05:28:18.339Z,981.39
2018-05-26T05:29:18.582Z,981.46
2018-05-26T05:30:18.826Z,981.42
2018-05-26T05:31:19.071Z,981.47
2018-05-26T05:32:19.315Z,981.48
2018-05-26T05:33:19.560Z,981.50
2018-05-26T05:34:19.804Z,981.52
2018-05-26T05:35:20.048Z,981.52
2018-05-26T05:36:20.292Z,981.52
2018-05-26T05:37:20.536Z,981.51
2018-05-26T05:38:20.780Z,981.51
2018-05-26T05:39:21.030Z,981.49
2018-05-26T05:40:21.269Z,981.58
2018-05-26T05:41:21.514Z,981.60
2018-05-26T05:42:21.758Z,981.55
2018-05-26T05:43:22.006Z,981.64
2018-05-26T05:44:22.251Z,981.61
2018-05-26T05:45:22.493Z,981.68
2018-05-26T05:46:22.736Z,981.68
2018-05-26T05:47:22.981Z,981.71
2018-05-26T05:48:23.226Z,981.75
2018-05-26T05:49:23.471Z,981.76
2018-05-26T05:50:23.714Z,981.77
2018-05-26T05:51:23.960Z,981.78
2018-05-26T05:52:24.201Z,981.79
2018-05-26T05:53:24.448Z,981.76
2018-05-26T05:54:24.695Z,981.76
2018-05-26T05:55:24.938Z,981.75
2018-05-26T05:56:25.240Z,981.76
2018-05-26T05:57:25.427Z,981.75
2018-05-26T05:58:25.675Z,981.79
2018-05-26T05:59:25.916Z,981.78
2018-05-26T06:00:26.160Z,981.82
2018-05-26T06:01:26.405Z,981.80
2018-05-26T06:02:26.651Z,981.83
2018-05-26T06:03:26.894Z,981.81
2018-05-26T06:04:27.140Z,981.85
2018-05-26T06:05:27.388Z,981.82
2018-05-26T06:06:27.629Z,981.86
2018-05-26T06:07:27.873Z,981.79
2018-05-26T06:08:28.118Z,981.80
2018-05-26T06:09:28.364Z,981.75
2018-05-26T06:10:28.608Z,981.79
2018-05-26T06:11:28.853Z,981.75
2018-05-26T06:12:29.089Z,981.75
2018-05-26T06:13:29.340Z,981.78
2018-05-26T06:14:29.585Z,981.79
2018-05-26T06:15:29.835Z,981.76
2018-05-26T06:16:30.076Z,981.82
2018-05-26T06:17:30.323Z,981.81
2018-05-26T06:18:30.570Z,981.84
2018-05-26T06:19:30.819Z,981.88
2018-05-26T06:20:31.061Z,981.84
2018-05-26T06:21:31.309Z,981.83
2018-05-26T06:22:31.553Z,981.90
2018-05-26T06:23:31.798Z,981.92
2018-05-26T06:24:32.045Z,981.92
2018-05-26T06:25:32.294Z,981.87
2018-05-26T06:26:32.599Z,981.90
2018-05-26T06:27:32.797Z,981.91
2018-05-26T06:28:33.042Z,981.91
2018-05-26T06:29:33.287Z,981.93
2018-05-26T06:30:33.533Z,981.93
2018-05-26T06:31:33.779Z,981.96
2018-05-26T06:32:34.032Z,981.98
2018-05-26T06:33:34.283Z,981.97
2018-05-26T06:34:34.527Z,981.97
2018-05-26T06:35:34.772Z,981.96
2018-05-26T06:36:35.019Z,981.96
2018-05-26T06:37:35.346Z,981.95
2018-05-26T06:38:35.558Z,981.94
2018-05-26T06:39:36.149Z,981.98
2018-05-26T06:40:36.186Z,981.99
2018-05-26T06:41:36.432Z,982.02
2018-05-26T06:42:36.681Z,982.04
2018-05-26T06:43:36.929Z,982.00
2018-05-26T06:44:37.176Z,982.05
2018-05-26T06:45:37.424Z,982.03
2018-05-26T06:46:37.669Z,982.01
2018-05-26T06:47:37.915Z,981.99
2018-05-26T06:48:38.162Z,982.01
2018-05-26T06:49:38.408Z,982.00
2018-05-26T06:50:38.656Z,982.02
2018-05-26T06:51:38.904Z,982.01
2018-05-26T06:52:39.150Z,982.03
2018-05-26T06:53:39.396Z,982.02
2018-05-26T06:54:39.643Z,982.03
2018-05-26T06:55:39.895Z,982.01
2018-05-26T06:56:40.139Z,982.01
2018-05-26T06:57:40.386Z,981.99
2018-05-26T06:58:40.633Z,981.95
2018-05-26T06:59:40.881Z,981.94
2018-05-26T07:00:41.129Z,981.95
2018-05-26T07:01:41.376Z,981.94
2018-05-26T07:02:41.623Z,981.93
2018-05-26T07:03:41.873Z,981.90
2018-05-26T07:04:42.124Z,981.94
2018-05-26T07:05:42.372Z,981.88
2018-05-26T07:06:42.623Z,981.93
2018-05-26T07:07:42.869Z,981.86
2018-05-26T07:08:43.120Z,981.91
2018-05-26T07:09:43.365Z,981.94
2018-05-26T07:10:43.614Z,981.91
2018-05-26T07:11:43.874Z,981.93
2018-05-26T07:12:44.110Z,981.94
2018-05-26T07:13:44.358Z,981.91
2018-05-26T07:14:44.606Z,981.89
2018-05-26T07:15:44.852Z,981.90
2018-05-26T07:16:45.103Z,981.91
2018-05-26T07:17:45.355Z,981.94
2018-05-26T07:18:45.602Z,981.93
2018-05-26T07:19:45.852Z,981.92
2018-05-26T07:20:46.099Z,981.97
2018-05-26T07:21:46.350Z,981.91
2018-05-26T07:22:46.600Z,981.94
2018-05-26T07:23:46.848Z,982.02
2018-05-26T07:24:47.130Z,981.97
2018-05-26T07:25:47.347Z,982.02
2018-05-26T07:26:47.597Z,981.98
2018-05-26T07:27:47.876Z,981.98
2018-05-26T07:28:48.096Z,981.99
2018-05-26T07:29:48.345Z,981.98
2018-05-26T07:30:48.598Z,981.98
2018-05-26T07:31:48.851Z,982.00
2018-05-26T07:32:49.101Z,982.01
2018-05-26T07:33:49.376Z,981.98
2018-05-26T07:34:49.603Z,981.99
2018-05-26T07:35:49.856Z,981.98
2018-05-26T07:36:50.109Z,981.97
2018-05-26T07:37:50.361Z,981.97
2018-05-26T07:38:50.615Z,982.00
2018-05-26T07:39:50.867Z,981.99
2018-05-26T07:40:51.119Z,981.99
2018-05-26T07:41:51.371Z,981.99
2018-05-26T07:42:51.625Z,981.99
2018-05-26T07:43:51.873Z,982.04
2018-05-26T07:44:52.127Z,982.06
2018-05-26T07:45:52.382Z,982.06
2018-05-26T07:46:52.662Z,982.03
2018-05-26T07:47:52.914Z,982.03
2018-05-26T07:48:53.166Z,982.03
2018-05-26T07:49:53.406Z,982.05
2018-05-26T07:50:53.660Z,982.00
2018-05-26T07:51:53.918Z,982.09
2018-05-26T07:52:54.173Z,982.04
2018-05-26T07:53:54.424Z,982.08
2018-05-26T07:54:54.682Z,982.07
2018-05-26T07:55:54.933Z,982.10
2018-05-26T07:56:55.186Z,982.08
2018-05-26T07:57:55.449Z,982.11
2018-05-26T07:58:55.695Z,982.06
2018-05-26T07:59:55.949Z,982.06
2018-05-26T08:00:56.206Z,982.08
2018-05-26T08:01:56.461Z,982.09
2018-05-26T08:02:56.722Z,982.04
2018-05-26T08:03:56.971Z,982.11
2018-05-26T08:04:57.226Z,982.13
2018-05-26T08:05:57.479Z,982.14
2018-05-26T08:06:57.735Z,982.10
2018-05-26T08:07:57.986Z,982.11
2018-05-26T08:08:58.240Z,982.15
2018-05-26T08:09:58.498Z,982.10
2018-05-26T08:10:58.813Z,982.12
2018-05-26T08:11:58.998Z,982.09
2018-05-26T08:12:59.255Z,982.13
2018-05-26T08:13:59.511Z,982.13
2018-05-26T08:14:59.766Z,982.12
2018-05-26T08:16:00.021Z,982.06
2018-05-26T08:17:00.276Z,982.11
2018-05-26T08:18:00.530Z,982.11
2018-05-26T08:19:00.784Z,982.11
2018-05-26T08:20:01.039Z,982.12
2018-05-26T08:21:01.295Z,982.10
2018-05-26T08:22:01.548Z,982.20
2018-05-26T08:23:01.802Z,982.15
2018-05-26T08:24:02.058Z,982.15
2018-05-26T08:25:02.315Z,982.15
2018-05-26T08:26:02.569Z,982.16
2018-05-26T08:27:02.822Z,982.17
2018-05-26T08:28:03.079Z,982.18
2018-05-26T08:29:03.335Z,982.19
2018-05-26T08:30:03.591Z,982.20
2018-05-26T08:31:03.846Z,982.22
2018-05-26T08:32:04.104Z,982.25
2018-05-26T08:33:04.355Z,982.28
2018-05-26T08:34:04.613Z,982.31
2018-05-26T08:35:04.870Z,982.29
2018-05-26T08:36:05.128Z,982.31
2018-05-26T08:37:05.387Z,982.27
2018-05-26T08:38:05.646Z,982.28
2018-05-26T08:39:05.906Z,982.27
2018-05-26T08:40:06.161Z,982.26
2018-05-26T08:41:06.415Z,982.28
2018-05-26T08:42:06.673Z,982.25
2018-05-26T08:43:06.924Z,982.27
2018-05-26T08:44:07.179Z,982.29
2018-05-26T08:45:07.434Z,982.30
2018-05-26T08:46:07.688Z,982.30
2018-05-26T08:47:07.944Z,982.29
2018-05-26T08:48:08.199Z,982.30
2018-05-26T08:49:08.455Z,982.32
2018-05-26T08:50:08.717Z,982.34
2018-05-26T08:51:09.003Z,982.40
2018-05-26T08:52:09.224Z,982.42
2018-05-26T08:53:09.478Z,982.42
2018-05-26T08:54:09.734Z,982.45
2018-05-26T08:55:09.999Z,982.45
2018-05-26T08:56:10.271Z,982.48
2018-05-26T08:57:10.527Z,982.47
2018-05-26T08:58:10.785Z,982.49
2018-05-26T08:59:11.042Z,982.50
2018-05-26T09:00:11.297Z,982.53
2018-05-26T09:01:11.554Z,982.51
2018-05-26T09:02:11.811Z,982.57
2018-05-26T09:03:12.067Z,982.55
2018-05-26T09:04:12.319Z,982.57
2018-05-26T09:05:12.574Z,982.53
2018-05-26T09:06:12.830Z,982.56
2018-05-26T09:07:13.086Z,982.56
2018-05-26T09:08:13.343Z,982.56
2018-05-26T09:09:13.598Z,982.51
2018-05-26T09:10:13.859Z,982.55
2018-05-26T09:11:14.168Z,982.56
2018-05-26T09:12:14.374Z,982.51
2018-05-26T09:13:14.628Z,982.51
2018-05-26T09:14:14.884Z,982.45
2018-05-26T09:15:15.144Z,982.45
2018-05-26T09:16:15.396Z,982.44
2018-05-26T09:17:15.655Z,982.39
2018-05-26T09:18:15.908Z,982.39
2018-05-26T09:19:16.161Z,982.38
2018-05-26T09:20:16.416Z,982.39
2018-05-26T09:21:16.673Z,982.41
2018-05-26T09:22:16.931Z,982.41
2018-05-26T09:23:17.188Z,982.42
2018-05-26T09:24:17.444Z,982.43
2018-05-26T09:25:17.724Z,982.43
2018-05-26T09:26:17.956Z,982.45
2018-05-26T09:27:18.210Z,982.40
2018-05-26T09:28:18.473Z,982.50
2018-05-26T09:29:18.721Z,982.53
2018-05-26T09:30:19.038Z,982.52
2018-05-26T09:31:19.263Z,982.54
2018-05-26T09:32:19.487Z,982.57
2018-05-26T09:33:19.742Z,982.52
2018-05-26T09:34:19.996Z,982.50
2018-05-26T09:35:20.252Z,982.52
2018-05-26T09:36:20.506Z,982.58
2018-05-26T09:37:20.763Z,982.61
2018-05-26T09:38:21.021Z,982.63
2018-05-26T09:39:21.273Z,982.64
2018-05-26T09:40:21.530Z,982.64
2018-05-26T09:41:21.788Z,982.64
2018-05-26T09:42:22.045Z,982.71
2018-05-26T09:43:22.300Z,982.69
2018-05-26T09:44:22.559Z,982.70
2018-05-26T09:45:22.814Z,982.70
2018-05-26T09:46:23.071Z,982.70
2018-05-26T09:47:23.331Z,982.68
2018-05-26T09:48:23.587Z,982.69
2018-05-26T09:49:23.842Z,982.69
2018-05-26T09:50:24.097Z,982.68
2018-05-26T09:51:24.356Z,982.65
2018-05-26T09:52:24.611Z,982.68
2018-05-26T09:53:24.870Z,982.68
2018-05-26T09:54:25.125Z,982.68
2018-05-26T09:55:25.381Z,982.66
2018-05-26T09:56:25.646Z,982.70
2018-05-26T09:57:25.892Z,982.75
2018-05-26T09:58:26.147Z,982.73
2018-05-26T09:59:26.405Z,982.70
2018-05-26T10:00:26.662Z,982.67
2018-05-26T10:01:26.925Z,982.68
2018-05-26T10:02:27.176Z,982.68
2018-05-26T10:03:27.432Z,982.70
2018-05-26T10:04:27.688Z,982.73
2018-05-26T10:05:27.948Z,982.75
2018-05-26T10:06:28.201Z,982.76
2018-05-26T10:07:28.458Z,982.78
2018-05-26T10:08:28.712Z,983.02
2018-05-26T10:09:28.973Z,983.44
2018-05-26T10:10:29.226Z,983.58
2018-05-26T10:11:29.484Z,983.58
2018-05-26T10:12:29.740Z,983.55
2018-05-26T10:13:30.048Z,983.60
2018-05-26T10:14:30.268Z,983.64
2018-05-26T10:15:30.509Z,983.68
2018-05-26T10:16:30.766Z,983.74
2018-05-26T10:17:31.024Z,983.76
2018-05-26T10:18:31.283Z,983.68
2018-05-26T10:19:31.538Z,983.65
2018-05-26T10:20:31.797Z,983.69
2018-05-26T10:21:32.055Z,983.69
2018-05-26T10:22:32.310Z,983.77
2018-05-26T10:23:32.567Z,983.81
2018-05-26T10:24:32.825Z,983.88
2018-05-26T10:25:33.081Z,983.91
2018-05-26T10:26:33.339Z,984.07
2018-05-26T10:27:33.591Z,984.25
2018-05-26T10:28:33.847Z,984.19
2018-05-26T10:29:34.138Z,984.22
2018-05-26T10:30:34.362Z,982.30
2018-05-26T10:31:34.615Z,983.06
2018-05-26T10:32:34.872Z,983.83
2018-05-26T10:33:35.130Z,983.62
2018-05-26T10:34:35.391Z,983.74
2018-05-26T10:35:35.668Z,983.30
2018-05-26T10:36:35.903Z,982.74
2018-05-26T10:37:36.162Z,982.62
2018-05-26T10:38:36.422Z,982.64
2018-05-26T10:39:36.684Z,982.61
2018-05-26T10:40:36.935Z,982.59
2018-05-26T10:41:37.195Z,982.59
2018-05-26T10:42:37.454Z,982.56
2018-05-26T10:43:37.710Z,982.59
2018-05-26T10:44:37.965Z,982.58
2018-05-26T10:45:38.230Z,982.62
2018-05-26T10:46:38.476Z,982.61
2018-05-26T10:47:38.730Z,982.63
2018-05-26T10:48:38.990Z,982.65
2018-05-26T10:49:39.245Z,982.65
2018-05-26T10:50:39.502Z,982.64
2018-05-26T10:51:39.760Z,982.72
2018-05-26T10:52:40.017Z,982.98
2018-05-26T10:53:40.273Z,982.95
2018-05-26T10:54:40.533Z,982.78
2018-05-26T10:55:40.789Z,982.90
2018-05-26T10:56:41.049Z,983.01
2018-05-26T10:57:41.302Z,983.02
2018-05-26T10:58:41.560Z,982.98
2018-05-26T10:59:41.818Z,983.32
2018-05-26T11:00:42.073Z,983.66
2018-05-26T11:01:42.331Z,983.56
2018-05-26T11:02:42.591Z,983.22
2018-05-26T11:03:42.849Z,982.89
2018-05-26T11:04:43.105Z,982.95
2018-05-26T11:05:43.365Z,983.04
2018-05-26T11:06:43.622Z,983.06
2018-05-26T11:07:43.879Z,983.07
2018-05-26T11:08:44.141Z,983.27
2018-05-26T11:09:44.398Z,983.48
2018-05-26T11:10:44.660Z,983.46
2018-05-26T11:11:44.911Z,983.37
2018-05-26T11:12:45.171Z,983.35
2018-05-26T11:13:45.434Z,983.18
2018-05-26T11:14:45.689Z,982.92
2018-05-26T11:15:45.945Z,982.88
2018-05-26T11:16:46.205Z,982.99
2018-05-26T11:17:46.617Z,983.01
2018-05-26T11:18:46.723Z,983.05
2018-05-26T11:19:46.980Z,983.06
2018-05-26T11:20:47.240Z,983.00
2018-05-26T11:21:47.498Z,983.15
2018-05-26T11:22:47.758Z,983.07
2018-05-26T11:23:48.039Z,983.10
2018-05-26T11:24:48.312Z,983.13
2018-05-26T11:25:48.538Z,983.06
2018-05-26T11:26:48.803Z,983.07
2018-05-26T11:27:49.057Z,982.89
2018-05-26T11:28:49.332Z,982.29
2018-05-26T11:29:49.582Z,982.22
2018-05-26T11:30:49.890Z,982.96
2018-05-26T11:31:50.095Z,983.07
2018-05-26T11:32:50.357Z,983.20
2018-05-26T11:33:50.627Z,983.10
2018-05-26T11:34:50.878Z,982.92
2018-05-26T11:35:51.138Z,982.76
2018-05-26T11:36:51.399Z,982.65
2018-05-26T11:37:51.662Z,982.65
2018-05-26T11:38:51.916Z,982.62
2018-05-26T11:39:52.181Z,982.65
2018-05-26T11:40:52.439Z,982.64
2018-05-26T11:41:52.698Z,982.66
2018-05-26T11:42:52.956Z,982.60
2018-05-26T11:43:53.215Z,982.62
2018-05-26T11:44:53.476Z,982.58
2018-05-26T11:45:53.737Z,982.59
2018-05-26T11:46:53.996Z,982.64
2018-05-26T11:47:54.253Z,982.61
2018-05-26T11:48:54.517Z,982.62
2018-05-26T11:49:54.777Z,982.56
2018-05-26T11:50:55.037Z,982.56
2018-05-26T11:51:55.294Z,982.20
2018-05-26T11:52:55.553Z,982.58
2018-05-26T11:53:55.819Z,982.59
2018-05-26T11:54:56.076Z,982.55
2018-05-26T11:55:56.338Z,982.54
2018-05-26T11:56:56.597Z,982.58
2018-05-26T11:57:56.854Z,982.56
2018-05-26T11:58:57.111Z,982.59
2018-05-26T11:59:57.373Z,982.54
2018-05-26T12:00:57.631Z,982.59
2018-05-26T12:01:57.895Z,982.56
2018-05-26T12:02:58.153Z,982.59
2018-05-26T12:03:58.411Z,982.57
2018-05-26T12:04:58.669Z,982.53
2018-05-26T12:05:58.926Z,982.52
2018-05-26T12:06:59.188Z,982.49
2018-05-26T12:07:59.445Z,982.51
2018-05-26T12:08:59.700Z,982.49
2018-05-26T12:10:00.113Z,982.46
2018-05-26T12:11:00.810Z,982.45
2018-05-26T12:12:00.648Z,982.48
2018-05-26T12:13:00.918Z,982.48
2018-05-26T12:14:01.167Z,982.48
2018-05-26T12:15:01.422Z,982.47
2018-05-26T12:16:01.682Z,982.49
2018-05-26T12:17:01.942Z,982.45
2018-05-26T12:18:02.202Z,982.46
2018-05-26T12:19:02.462Z,982.49
2018-05-26T12:20:02.721Z,982.46
2018-05-26T12:21:02.984Z,982.48
2018-05-26T12:22:03.262Z,982.43
2018-05-26T12:23:03.530Z,982.43
2018-05-26T12:24:03.789Z,982.41
2018-05-26T12:25:04.046Z,982.40
2018-05-26T12:26:04.305Z,982.44
2018-05-26T12:27:04.558Z,982.47
2018-05-26T12:28:04.832Z,982.48
2018-05-26T12:29:05.092Z,982.48
2018-05-26T12:30:05.353Z,982.45
2018-05-26T12:31:05.608Z,982.13
2018-05-26T12:32:05.864Z,982.08